createdAt,value
2023-03-14T00:01:34.120Z,9.50
2023-03-14T00:04:01.421Z,9.49
2023-03-14T00:06:28.964Z,9.54
2023-03-14T00:08:56.099Z,9.54
2023-03-14T00:11:23.265Z,9.53
2023-03-14T00:14:10.263Z,9.57
2023-03-14T00:16:37.282Z,9.50
2023-03-14T00:19:04.351Z,9.45
2023-03-14T00:21:31.371Z,9.48
2023-03-14T00:23:58.666Z,9.47
2023-03-14T00:26:25.703Z,9.43
2023-03-14T00:28:53.303Z,9.50
2023-03-14T00:31:20.651Z,9.56
2023-03-14T00:33:48.026Z,9.56
2023-03-14T00:36:16.973Z,9.53
2023-03-14T00:38:45.448Z,9.52
2023-03-14T00:41:15.338Z,9.50
2023-03-14T00:43:42.623Z,9.50
2023-03-14T00:46:09.930Z,9.49
2023-03-14T00:48:37.268Z,9.48
2023-03-14T00:51:05.400Z,9.50
2023-03-14T00:53:32.497Z,9.50
2023-03-14T00:56:03.806Z,9.54
2023-03-14T00:58:30.868Z,9.54
2023-03-14T01:00:58.015Z,9.57
2023-03-14T01:03:25.619Z,9.64
2023-03-14T01:05:52.759Z,9.62
2023-03-14T01:08:19.830Z,9.65
2023-03-14T01:10:47.016Z,9.64
2023-03-14T01:13:14.341Z,9.65
2023-03-14T01:15:41.466Z,9.59
2023-03-14T01:18:08.866Z,9.55
2023-03-14T01:20:38.066Z,9.54
2023-03-14T01:23:05.178Z,9.60
2023-03-14T01:25:32.603Z,9.62
2023-03-14T01:28:01.757Z,9.59
2023-03-14T01:30:29.134Z,9.59
2023-03-14T01:32:56.271Z,9.63
2023-03-14T01:35:23.421Z,9.62
2023-03-14T01:37:50.572Z,9.64
2023-03-14T01:40:18.390Z,9.61
2023-03-14T01:42:47.279Z,9.60
2023-03-14T01:45:52.035Z,9.58
2023-03-14T01:48:19.325Z,9.60
2023-03-14T01:50:46.669Z,9.64
2023-03-14T01:53:14.353Z,9.67
2023-03-14T01:55:41.593Z,9.72
2023-03-14T01:58:08.856Z,9.82
2023-03-14T02:00:36.231Z,9.86
2023-03-14T02:03:06.851Z,9.90
2023-03-14T02:05:35.971Z,9.94
2023-03-14T02:08:05.372Z,9.98
2023-03-14T02:10:34.553Z,10.00
2023-03-14T02:13:07.141Z,9.97
2023-03-14T02:15:34.663Z,9.94
2023-03-14T02:18:03.405Z,9.93
2023-03-14T02:20:52.156Z,9.96
2023-03-14T02:23:48.734Z,10.03
2023-03-14T02:26:24.290Z,10.05
2023-03-14T02:28:51.889Z,10.08
2023-03-14T02:31:19.089Z,10.12
2023-03-14T02:33:46.615Z,10.10
2023-03-14T02:36:15.529Z,10.05
2023-03-14T02:38:59.500Z,10.02
2023-03-14T02:41:26.624Z,9.99
2023-03-14T02:43:54.127Z,10.00
2023-03-14T02:46:22.300Z,9.97
2023-03-14T02:48:52.986Z,9.95
2023-03-14T02:51:21.455Z,9.91
2023-03-14T02:53:49.117Z,9.87
2023-03-14T02:56:16.626Z,9.83
2023-03-14T02:58:43.684Z,9.81
2023-03-14T03:01:10.853Z,9.79
2023-03-14T03:03:39.426Z,9.75
2023-03-14T03:06:06.842Z,9.83
2023-03-14T03:08:34.118Z,9.84
2023-03-14T03:11:01.158Z,9.79
2023-03-14T03:13:28.240Z,9.76
2023-03-14T03:15:55.300Z,9.70
2023-03-14T03:18:22.419Z,9.68
2023-03-14T03:20:49.513Z,9.72
2023-03-14T03:23:16.606Z,9.68
2023-03-14T03:25:49.250Z,9.64
2023-03-14T03:28:16.321Z,9.63
2023-03-14T03:30:44.262Z,9.63
2023-03-14T03:33:12.279Z,9.61
2023-03-14T03:35:43.921Z,9.58
2023-03-14T03:38:12.628Z,9.54
2023-03-14T03:40:39.928Z,9.51
2023-03-14T03:43:07.381Z,9.47
2023-03-14T03:45:34.430Z,9.48
2023-03-14T03:48:02.079Z,9.41
2023-03-14T03:50:29.181Z,9.41
2023-03-14T03:52:56.263Z,9.39
2023-03-14T03:55:23.362Z,9.43
2023-03-14T03:57:50.420Z,9.40
2023-03-14T04:00:18.475Z,9.36
2023-03-14T04:02:45.569Z,9.31
2023-03-14T04:05:13.685Z,9.32
2023-03-14T04:07:40.977Z,9.31
2023-03-14T04:10:08.592Z,9.30
2023-03-14T04:12:35.668Z,9.29
2023-03-14T04:15:03.761Z,9.34
2023-03-14T04:17:30.808Z,9.30
2023-03-14T04:19:57.868Z,9.30
2023-03-14T04:22:24.947Z,9.27
2023-03-14T04:24:52.093Z,9.28
2023-03-14T04:27:19.472Z,9.30
2023-03-14T04:29:46.493Z,9.31
2023-03-14T04:32:13.670Z,9.33
2023-03-14T04:34:40.768Z,9.31
2023-03-14T04:37:08.011Z,9.26
2023-03-14T04:39:35.117Z,9.24
2023-03-14T04:42:02.194Z,9.29
2023-03-14T04:44:29.266Z,9.31
2023-03-14T04:46:56.779Z,9.31
2023-03-14T04:49:24.132Z,9.27
2023-03-14T04:51:54.223Z,9.29
2023-03-14T04:54:21.309Z,9.31
2023-03-14T04:56:48.361Z,9.32
2023-03-14T04:59:15.763Z,9.34
2023-03-14T05:01:42.869Z,9.28
2023-03-14T05:04:09.940Z,9.30
2023-03-14T05:06:37.285Z,9.27
2023-03-14T05:09:06.192Z,9.29
2023-03-14T05:11:33.737Z,9.32
2023-03-14T05:14:00.874Z,9.29
2023-03-14T05:16:28.039Z,9.31
2023-03-14T05:18:55.549Z,9.31
2023-03-14T05:21:22.586Z,9.32
2023-03-14T05:23:50.105Z,9.26
2023-03-14T05:26:17.920Z,9.27
2023-03-14T05:28:45.101Z,9.29
2023-03-14T05:31:13.227Z,9.34
2023-03-14T05:33:40.958Z,9.35
2023-03-14T05:36:09.215Z,9.35
2023-03-14T05:38:36.262Z,9.33
2023-03-14T05:41:03.473Z,9.37
2023-03-14T05:43:30.574Z,9.36
2023-03-14T05:45:58.015Z,9.36
2023-03-14T05:48:25.885Z,9.36
2023-03-14T05:50:57.154Z,9.33
2023-03-14T05:53:24.314Z,9.35
2023-03-14T05:55:56.809Z,9.33
2023-03-14T05:58:25.146Z,9.33
2023-03-14T06:00:53.032Z,9.33
2023-03-14T06:03:20.203Z,9.33
2023-03-14T06:05:47.439Z,9.35
2023-03-14T06:08:16.831Z,9.37
2023-03-14T06:10:45.095Z,9.44
2023-03-14T06:13:12.265Z,9.48
2023-03-14T06:15:39.479Z,9.50
2023-03-14T06:18:06.649Z,9.50
2023-03-14T06:20:34.322Z,9.53
2023-03-14T06:23:01.733Z,9.55
2023-03-14T06:25:28.888Z,9.52
2023-03-14T06:27:56.109Z,9.55
2023-03-14T06:30:23.214Z,9.55
2023-03-14T06:32:50.790Z,9.53
2023-03-14T06:35:18.290Z,9.54
2023-03-14T06:37:45.426Z,9.59
2023-03-14T06:40:17.902Z,9.59
2023-03-14T06:42:45.667Z,9.59
2023-03-14T06:45:13.595Z,9.60
2023-03-14T06:47:40.892Z,9.59
2023-03-14T06:50:09.939Z,9.61
2023-03-14T06:52:37.546Z,9.63
2023-03-14T06:55:04.970Z,9.64
2023-03-14T06:57:32.502Z,9.60
2023-03-14T06:59:59.554Z,9.64
2023-03-14T07:02:39.904Z,9.67
2023-03-14T07:05:11.318Z,9.66
2023-03-14T07:07:38.428Z,9.66
2023-03-14T07:10:06.039Z,9.67
2023-03-14T07:12:33.146Z,9.66
2023-03-14T07:15:11.950Z,9.70
2023-03-14T07:17:44.455Z,9.74
2023-03-14T07:20:11.745Z,9.75
2023-03-14T07:22:38.815Z,9.80
2023-03-14T07:25:06.422Z,9.81
2023-03-14T07:27:33.525Z,9.80
2023-03-14T07:30:00.605Z,9.79
2023-03-14T07:32:28.293Z,9.81
2023-03-14T07:34:55.445Z,9.81
2023-03-14T07:37:22.836Z,9.81
2023-03-14T07:39:50.090Z,9.82
2023-03-14T07:42:17.168Z,9.84
2023-03-14T07:44:44.351Z,9.83
2023-03-14T07:47:12.425Z,9.88
2023-03-14T07:49:39.877Z,9.90
2023-03-14T07:52:06.982Z,9.95
2023-03-14T07:54:34.174Z,9.98
2023-03-14T07:57:01.643Z,10.01
2023-03-14T07:59:28.873Z,10.04
2023-03-14T08:01:55.936Z,10.05
2023-03-14T08:04:23.126Z,10.04
2023-03-14T08:06:50.229Z,10.06
2023-03-14T08:09:17.280Z,10.03
2023-03-14T08:11:44.443Z,10.05
2023-03-14T08:14:12.300Z,10.06
2023-03-14T08:16:39.497Z,10.09
2023-03-14T08:19:06.542Z,10.11
2023-03-14T08:21:33.963Z,10.13
2023-03-14T08:24:01.768Z,10.14
2023-03-14T08:26:29.120Z,10.16
2023-03-14T08:28:56.253Z,10.22
2023-03-14T08:31:23.537Z,10.36
2023-03-14T08:33:53.022Z,10.46
2023-03-14T08:36:23.225Z,10.59
2023-03-14T08:38:51.188Z,10.59
2023-03-14T08:41:18.325Z,10.62
2023-03-14T08:43:45.569Z,10.63
2023-03-14T08:46:12.626Z,10.65
2023-03-14T08:48:39.657Z,10.64
2023-03-14T08:51:08.547Z,10.66
2023-03-14T08:53:35.684Z,10.68
2023-03-14T08:56:02.792Z,10.73
2023-03-14T08:58:30.457Z,10.71
2023-03-14T09:00:57.921Z,10.75
2023-03-14T09:03:26.169Z,10.71
2023-03-14T09:05:53.731Z,10.66
2023-03-14T09:08:20.777Z,10.64
2023-03-14T09:10:47.900Z,10.62
2023-03-14T09:13:14.985Z,10.56
2023-03-14T09:15:43.475Z,10.54
2023-03-14T09:18:10.615Z,10.51
2023-03-14T09:20:37.912Z,10.38
2023-03-14T09:23:04.991Z,10.38
2023-03-14T09:25:32.033Z,10.37
2023-03-14T09:27:59.096Z,10.35
2023-03-14T09:30:26.138Z,10.38
2023-03-14T09:32:53.359Z,10.38
2023-03-14T09:35:20.512Z,10.38
2023-03-14T09:37:47.689Z,10.38
2023-03-14T09:40:16.796Z,10.39
2023-03-14T09:42:43.861Z,10.42
2023-03-14T09:45:18.747Z,10.45
2023-03-14T09:47:58.594Z,10.44
2023-03-14T09:50:33.004Z,10.44
2023-03-14T09:53:03.688Z,10.41
2023-03-14T09:55:30.822Z,10.41
2023-03-14T09:58:01.449Z,10.41
2023-03-14T10:00:30.424Z,10.39
2023-03-14T10:03:03.565Z,10.41
2023-03-14T10:05:30.726Z,10.43
2023-03-14T10:07:57.789Z,10.41
2023-03-14T10:10:26.871Z,10.43
2023-03-14T10:12:59.195Z,10.49
2023-03-14T10:15:31.075Z,10.50
2023-03-14T10:18:00.208Z,10.57
2023-03-14T10:20:42.736Z,10.60
2023-03-14T10:23:12.554Z,10.65
2023-03-14T10:25:42.234Z,10.66
2023-03-14T10:28:25.238Z,10.66
2023-03-14T10:30:52.579Z,10.71
2023-03-14T10:33:21.407Z,10.80
2023-03-14T10:36:04.577Z,10.90
2023-03-14T10:38:36.685Z,11.03
2023-03-14T10:41:16.636Z,11.18
2023-03-14T10:43:44.270Z,11.23
2023-03-14T10:46:21.335Z,11.14
2023-03-14T10:48:50.789Z,11.12
2023-03-14T10:51:17.762Z,11.11
2023-03-14T10:54:02.629Z,11.12
2023-03-14T10:56:37.813Z,11.09
2023-03-14T10:59:08.652Z,11.01
2023-03-14T11:01:48.033Z,11.01
2023-03-14T11:04:25.382Z,11.03
2023-03-14T11:07:02.831Z,11.06
2023-03-14T11:09:47.325Z,11.08
2023-03-14T11:12:51.906Z,11.08
2023-03-14T11:15:38.058Z,11.15
2023-03-14T11:18:17.353Z,11.29
2023-03-14T11:20:57.143Z,11.39
2023-03-14T11:23:47.796Z,11.44
2023-03-14T11:26:26.323Z,11.45
2023-03-14T11:28:58.762Z,11.38
2023-03-14T11:31:27.281Z,11.33
2023-03-14T11:34:25.793Z,11.30
2023-03-14T11:36:55.181Z,11.25
2023-03-14T11:39:22.510Z,11.21
2023-03-14T11:41:54.322Z,11.22
2023-03-14T11:44:28.389Z,11.21
2023-03-14T11:47:04.387Z,11.23
2023-03-14T11:49:39.944Z,11.26
2023-03-14T11:52:12.173Z,11.22
2023-03-14T11:54:47.935Z,11.26
2023-03-14T11:57:20.576Z,11.27
2023-03-14T12:00:10.793Z,11.23
2023-03-14T12:02:58.916Z,11.28
2023-03-14T12:05:41.286Z,11.36
2023-03-14T12:08:08.534Z,11.46
2023-03-14T12:10:41.763Z,11.54
2023-03-14T12:13:12.363Z,11.56
2023-03-14T12:15:41.786Z,11.53
2023-03-14T12:18:21.328Z,11.51
2023-03-14T12:20:53.444Z,11.47
2023-03-14T12:23:21.519Z,11.52
2023-03-14T12:25:49.121Z,11.46
2023-03-14T12:28:20.308Z,11.45
2023-03-14T12:30:47.504Z,11.45
2023-03-14T12:33:28.706Z,11.44
2023-03-14T12:36:04.879Z,11.44
2023-03-14T12:38:47.083Z,11.49
2023-03-14T12:41:31.015Z,11.51
2023-03-14T12:44:35.894Z,11.54
2023-03-14T12:47:21.178Z,11.50
2023-03-14T12:49:51.024Z,11.50
2023-03-14T12:52:21.294Z,11.50
2023-03-14T12:55:04.682Z,11.43
2023-03-14T12:57:59.409Z,11.33
2023-03-14T13:00:39.381Z,11.40
2023-03-14T13:03:23.268Z,11.37
2023-03-14T13:06:01.496Z,11.33
2023-03-14T13:08:45.833Z,11.33
2023-03-14T13:11:22.366Z,11.30
2023-03-14T13:13:53.561Z,11.28
2023-03-14T13:16:21.926Z,11.30
2023-03-14T13:18:50.503Z,11.36
2023-03-14T13:21:21.035Z,11.38
2023-03-14T13:23:56.770Z,11.48
2023-03-14T13:26:37.630Z,11.56
2023-03-14T13:29:32.472Z,11.62
2023-03-14T13:32:18.262Z,11.60
2023-03-14T13:34:46.100Z,11.70
2023-03-14T13:37:18.026Z,11.72
2023-03-14T13:39:50.516Z,11.87
2023-03-14T13:42:17.828Z,11.92
2023-03-14T13:44:45.757Z,12.10
2023-03-14T13:47:16.386Z,12.12
2023-03-14T13:49:44.164Z,12.21
2023-03-14T13:52:25.682Z,12.25
2023-03-14T13:54:56.898Z,12.22
2023-03-14T13:57:24.261Z,12.30
2023-03-14T14:00:10.210Z,12.20
2023-03-14T14:02:38.405Z,12.10
2023-03-14T14:05:05.745Z,12.02
2023-03-14T14:07:32.817Z,12.07
2023-03-14T14:10:01.411Z,12.07
2023-03-14T14:12:35.948Z,12.06
2023-03-14T14:15:07.507Z,12.11
2023-03-14T14:17:41.937Z,12.20
2023-03-14T14:20:32.802Z,12.20
2023-03-14T14:23:01.392Z,12.34
2023-03-14T14:25:29.814Z,12.48
2023-03-14T14:27:57.044Z,12.52
2023-03-14T14:30:31.024Z,12.33
2023-03-14T14:33:20.656Z,12.34
2023-03-14T14:35:57.016Z,12.34
2023-03-14T14:38:25.138Z,12.26
2023-03-14T14:40:54.938Z,12.14
2023-03-14T14:43:25.397Z,12.12
2023-03-14T14:45:55.023Z,12.00
2023-03-14T14:48:24.652Z,11.89
2023-03-14T14:50:57.524Z,11.77
2023-03-14T14:53:30.817Z,11.71
2023-03-14T14:56:00.556Z,11.73
2023-03-14T14:58:30.508Z,11.77
2023-03-14T15:01:11.622Z,11.79
2023-03-14T15:03:39.232Z,11.75
2023-03-14T15:06:06.413Z,11.70
2023-03-14T15:08:34.264Z,11.64
2023-03-14T15:11:01.337Z,11.60
2023-03-14T15:13:28.465Z,11.59
2023-03-14T15:15:58.505Z,11.47
2023-03-14T15:18:30.791Z,11.31
2023-03-14T15:20:58.185Z,11.15
2023-03-14T15:23:25.370Z,10.99
2023-03-14T15:25:55.774Z,10.83
2023-03-14T15:28:25.608Z,10.71
2023-03-14T15:30:55.566Z,10.60
2023-03-14T15:33:23.095Z,10.49
2023-03-14T15:35:50.166Z,10.37
2023-03-14T15:38:22.066Z,10.24
2023-03-14T15:40:50.090Z,10.17
2023-03-14T15:43:17.471Z,10.06
2023-03-14T15:45:44.515Z,9.93
2023-03-14T15:48:22.281Z,9.85
2023-03-14T15:50:49.466Z,9.77
2023-03-14T15:53:16.966Z,9.72
2023-03-14T15:55:44.171Z,9.60
2023-03-14T15:58:19.960Z,9.57
2023-03-14T16:00:49.956Z,9.52
2023-03-14T16:03:17.542Z,9.49
2023-03-14T16:05:44.619Z,9.31
2023-03-14T16:08:11.756Z,9.19
2023-03-14T16:10:39.921Z,9.11
2023-03-14T16:13:06.994Z,9.02
2023-03-14T16:15:34.051Z,8.92
2023-03-14T16:18:06.462Z,8.81
2023-03-14T16:20:47.921Z,8.63
2023-03-14T16:23:16.425Z,8.27
2023-03-14T16:25:45.370Z,7.88
2023-03-14T16:28:12.406Z,7.58
2023-03-14T16:30:39.479Z,7.20
2023-03-14T16:33:12.484Z,6.89
2023-03-14T16:35:40.636Z,6.68
2023-03-14T16:38:07.802Z,6.36
2023-03-14T16:40:34.961Z,5.99
2023-03-14T16:43:15.620Z,5.77
2023-03-14T16:45:43.361Z,5.49
2023-03-14T16:48:10.436Z,5.23
2023-03-14T16:50:40.304Z,5.00
2023-03-14T16:53:10.906Z,4.84
2023-03-14T16:55:42.888Z,4.75
2023-03-14T16:58:10.571Z,4.64
2023-03-14T17:00:38.188Z,4.48
2023-03-14T17:03:05.719Z,4.39
2023-03-14T17:05:33.276Z,4.27
2023-03-14T17:08:00.304Z,4.11
2023-03-14T17:10:27.380Z,4.02
2023-03-14T17:12:54.446Z,3.99
2023-03-14T17:15:21.644Z,3.95
2023-03-14T17:17:48.928Z,3.96
2023-03-14T17:20:19.360Z,3.90
2023-03-14T17:22:46.371Z,3.86
2023-03-14T17:25:14.258Z,3.85
2023-03-14T17:27:41.350Z,3.80
2023-03-14T17:30:10.007Z,3.71
2023-03-14T17:32:37.056Z,3.64
2023-03-14T17:35:04.463Z,3.50
2023-03-14T17:37:31.562Z,3.38
2023-03-14T17:40:01.690Z,3.28
2023-03-14T17:42:28.848Z,3.14
2023-03-14T17:44:58.092Z,3.08
2023-03-14T17:47:25.321Z,2.97
2023-03-14T17:49:52.598Z,2.90
2023-03-14T17:52:19.899Z,2.84
2023-03-14T17:54:47.129Z,2.79
2023-03-14T17:57:14.251Z,2.80
2023-03-14T17:59:42.705Z,2.80
2023-03-14T18:02:11.078Z,2.80
2023-03-14T18:04:38.434Z,2.79
2023-03-14T18:07:05.560Z,2.76
2023-03-14T18:09:32.622Z,2.77
2023-03-14T18:12:07.432Z,2.76
2023-03-14T18:14:38.899Z,2.70
2023-03-14T18:17:06.454Z,2.69
2023-03-14T18:19:33.717Z,2.68
2023-03-14T18:22:00.795Z,2.73
2023-03-14T18:24:28.898Z,2.77
2023-03-14T18:26:56.467Z,2.75
2023-03-14T18:29:23.570Z,2.72
2023-03-14T18:31:51.153Z,2.69
2023-03-14T18:34:19.109Z,2.70
2023-03-14T18:36:46.196Z,2.73
2023-03-14T18:39:13.660Z,2.77
2023-03-14T18:41:40.999Z,2.74
2023-03-14T18:44:09.223Z,2.74
2023-03-14T18:46:36.422Z,2.76
2023-03-14T18:49:04.446Z,2.77
2023-03-14T18:51:32.899Z,2.78
2023-03-14T18:54:10.388Z,2.78
2023-03-14T18:56:39.745Z,2.77
2023-03-14T18:59:08.806Z,2.77
2023-03-14T19:01:37.022Z,2.76
2023-03-14T19:04:04.908Z,2.76
2023-03-14T19:06:32.869Z,2.76
2023-03-14T19:09:01.253Z,2.77
2023-03-14T19:11:28.899Z,2.76
2023-03-14T19:13:56.827Z,2.73
2023-03-14T19:16:24.908Z,2.74
2023-03-14T19:18:52.418Z,2.71
2023-03-14T19:21:31.212Z,2.67
2023-03-14T19:23:58.702Z,2.69
2023-03-14T19:26:25.915Z,2.66
2023-03-14T19:28:53.001Z,2.65
2023-03-14T19:31:20.548Z,2.64
2023-03-14T19:33:47.702Z,2.64
2023-03-14T19:36:28.591Z,2.65
2023-03-14T19:38:56.181Z,2.62
2023-03-14T19:41:24.642Z,2.61
2023-03-14T19:43:52.003Z,2.60
2023-03-14T19:46:19.174Z,2.61
2023-03-14T19:48:47.387Z,2.63
2023-03-14T19:51:15.541Z,2.61
2023-03-14T19:53:43.951Z,2.62
2023-03-14T19:56:11.355Z,2.62
2023-03-14T19:58:39.598Z,2.63
2023-03-14T20:01:08.092Z,2.62
2023-03-14T20:03:36.507Z,2.63
2023-03-14T20:06:08.245Z,2.64
2023-03-14T20:08:35.322Z,2.59
2023-03-14T20:11:07.195Z,2.60
2023-03-14T20:13:34.593Z,2.56
2023-03-14T20:16:05.159Z,2.56
2023-03-14T20:18:32.541Z,2.53
2023-03-14T20:21:00.041Z,2.56
2023-03-14T20:23:27.206Z,2.55
2023-03-14T20:25:59.620Z,2.51
2023-03-14T20:28:28.923Z,2.55
2023-03-14T20:30:57.816Z,2.54
2023-03-14T20:33:25.115Z,2.55
2023-03-14T20:35:59.760Z,2.59
2023-03-14T20:38:27.655Z,2.59
2023-03-14T20:40:59.407Z,2.64
2023-03-14T20:43:27.227Z,2.63
2023-03-14T20:45:55.516Z,2.65
2023-03-14T20:48:23.077Z,2.68
2023-03-14T20:50:50.209Z,2.69
2023-03-14T20:53:18.068Z,2.64
2023-03-14T20:55:45.195Z,2.62
2023-03-14T20:58:15.302Z,2.58
2023-03-14T21:00:48.139Z,2.62
2023-03-14T21:03:16.528Z,2.62
2023-03-14T21:05:47.800Z,2.61
2023-03-14T21:08:17.356Z,2.60
2023-03-14T21:10:47.975Z,2.59
2023-03-14T21:13:15.232Z,2.59
2023-03-14T21:15:42.439Z,2.64
2023-03-14T21:18:09.787Z,2.62
2023-03-14T21:20:42.460Z,2.63
2023-03-14T21:23:11.748Z,2.67
2023-03-14T21:25:39.058Z,2.68
2023-03-14T21:28:06.192Z,2.67
2023-03-14T21:30:34.408Z,2.70
2023-03-14T21:33:01.613Z,2.72
2023-03-14T21:35:29.171Z,2.72
2023-03-14T21:37:56.188Z,2.74
2023-03-14T21:40:24.350Z,2.78
2023-03-14T21:42:54.396Z,2.78
2023-03-14T21:45:26.055Z,2.81
2023-03-14T21:47:57.988Z,2.83
2023-03-14T21:50:26.370Z,2.79
2023-03-14T21:52:56.643Z,2.79
2023-03-14T21:55:25.381Z,2.79
2023-03-14T21:57:54.198Z,2.79
2023-03-14T22:00:21.800Z,2.79
2023-03-14T22:03:10.983Z,2.78
2023-03-14T22:05:38.662Z,2.74
2023-03-14T22:08:05.982Z,2.68
2023-03-14T22:10:33.170Z,2.63
2023-03-14T22:13:00.384Z,2.59
2023-03-14T22:15:27.489Z,2.55
2023-03-14T22:17:54.514Z,2.52
2023-03-14T22:20:21.783Z,2.51
2023-03-14T22:22:48.858Z,2.51
2023-03-14T22:25:15.900Z,2.48
2023-03-14T22:27:42.932Z,2.43
2023-03-14T22:30:10.674Z,2.42
2023-03-14T22:32:37.756Z,2.38
2023-03-14T22:35:05.113Z,2.35
2023-03-14T22:37:32.151Z,2.34
2023-03-14T22:39:59.288Z,2.33
2023-03-14T22:42:26.519Z,2.27
2023-03-14T22:44:53.673Z,2.24
2023-03-14T22:47:20.911Z,2.23
2023-03-14T22:49:48.047Z,2.26
2023-03-14T22:52:15.164Z,2.24
2023-03-14T22:54:42.477Z,2.19
2023-03-14T22:57:09.618Z,2.14
2023-03-14T22:59:36.717Z,2.09
2023-03-14T23:02:03.816Z,2.04
2023-03-14T23:04:30.846Z,2.05
2023-03-14T23:06:57.920Z,2.06
2023-03-14T23:09:25.213Z,2.06
2023-03-14T23:11:52.370Z,2.06
2023-03-14T23:14:22.972Z,2.07
2023-03-14T23:16:50.838Z,2.03
2023-03-14T23:19:18.268Z,2.01
2023-03-14T23:21:45.714Z,2.00
2023-03-14T23:24:13.170Z,1.97
2023-03-14T23:26:40.210Z,1.90
2023-03-14T23:29:07.349Z,1.81
2023-03-14T23:31:34.432Z,1.75
2023-03-14T23:34:01.956Z,1.76
2023-03-14T23:36:29.694Z,1.76
2023-03-14T23:38:57.759Z,1.72
2023-03-14T23:41:24.855Z,1.70
2023-03-14T23:43:52.231Z,1.71
2023-03-14T23:46:19.337Z,1.73
2023-03-14T23:48:47.237Z,1.73
2023-03-14T23:51:15.062Z,1.69
2023-03-14T23:53:42.777Z,1.67
2023-03-14T23:56:11.550Z,1.65
2023-03-14T23:58:38.584Z,1.66
